sensor_id;sensor_type;location;lat;lon;timestamp;P1;durP1;ratioP1;P2;durP2;ratioP2
36629;SDS011;36256;42.154;23.002;2023-12-04T00:01:59;9.63;;;6.82;;
36629;SDS011;36256;42.154;23.002;2023-12-04T00:04:26;10.70;;;6.65;;
36629;SDS011;36256;42.154;23.002;2023-12-04T00:06:53;8.95;;;6.13;;
36629;SDS011;36256;42.154;23.002;2023-12-04T00:09:19;7.25;;;5.18;;
36629;SDS011;36256;42.154;23.002;2023-12-04T00:11:46;11.00;;;6.80;;
36629;SDS011;36256;42.154;23.002;2023-12-04T00:14:13;10.18;;;7.10;;
36629;SDS011;36256;42.154;23.002;2023-12-04T00:16:39;12.82;;;7.10;;
36629;SDS011;36256;42.154;23.002;2023-12-04T00:19:06;11.43;;;7.15;;
36629;SDS011;36256;42.154;23.002;2023-12-04T00:21:33;10.68;;;7.00;;
36629;SDS011;36256;42.154;23.002;2023-12-04T00:24:00;11.20;;;7.25;;
36629;SDS011;36256;42.154;23.002;2023-12-04T00:26:26;12.88;;;7.40;;
36629;SDS011;36256;42.154;23.002;2023-12-04T00:28:53;24.65;;;15.10;;
36629;SDS011;36256;42.154;23.002;2023-12-04T00:31:20;43.33;;;25.35;;
36629;SDS011;36256;42.154;23.002;2023-12-04T00:33:47;27.25;;;17.83;;
36629;SDS011;36256;42.154;23.002;2023-12-04T00:36:14;30.73;;;15.02;;
36629;SDS011;36256;42.154;23.002;2023-12-04T00:38:41;18.55;;;11.65;;
36629;SDS011;36256;42.154;23.002;2023-12-04T00:41:08;23.65;;;12.50;;
36629;SDS011;36256;42.154;23.002;2023-12-04T00:43:34;39.53;;;22.92;;
36629;SDS011;36256;42.154;23.002;2023-12-04T00:46:01;40.58;;;22.17;;
36629;SDS011;36256;42.154;23.002;2023-12-04T00:48:28;24.63;;;13.80;;
36629;SDS011;36256;42.154;23.002;2023-12-04T00:50:57;30.02;;;16.63;;
36629;SDS011;36256;42.154;23.002;2023-12-04T00:53:24;143.90;;;73.53;;
36629;SDS011;36256;42.154;23.002;2023-12-04T00:55:50;173.20;;;81.90;;
36629;SDS011;36256;42.154;23.002;2023-12-04T00:58:17;67.97;;;35.83;;
36629;SDS011;36256;42.154;23.002;2023-12-04T01:00:43;71.72;;;39.40;;
36629;SDS011;36256;42.154;23.002;2023-12-04T01:03:10;185.27;;;103.60;;
36629;SDS011;36256;42.154;23.002;2023-12-04T01:05:37;97.88;;;49.90;;
36629;SDS011;36256;42.154;23.002;2023-12-04T01:08:04;36.60;;;21.88;;
36629;SDS011;36256;42.154;23.002;2023-12-04T01:10:30;17.90;;;8.20;;
36629;SDS011;36256;42.154;23.002;2023-12-04T01:12:57;22.85;;;10.32;;
36629;SDS011;36256;42.154;23.002;2023-12-04T01:15:24;10.50;;;7.53;;
36629;SDS011;36256;42.154;23.002;2023-12-04T01:17:51;54.10;;;28.75;;
36629;SDS011;36256;42.154;23.002;2023-12-04T01:20:17;30.80;;;14.45;;
36629;SDS011;36256;42.154;23.002;2023-12-04T01:22:44;35.53;;;20.00;;
36629;SDS011;36256;42.154;23.002;2023-12-04T01:25:11;19.20;;;10.93;;
36629;SDS011;36256;42.154;23.002;2023-12-04T01:27:38;29.58;;;18.15;;
36629;SDS011;36256;42.154;23.002;2023-12-04T01:30:05;51.05;;;26.17;;
36629;SDS011;36256;42.154;23.002;2023-12-04T01:32:34;57.42;;;30.55;;
36629;SDS011;36256;42.154;23.002;2023-12-04T01:35:01;34.70;;;21.25;;
36629;SDS011;36256;42.154;23.002;2023-12-04T01:37:28;47.60;;;28.63;;
36629;SDS011;36256;42.154;23.002;2023-12-04T01:39:55;56.58;;;31.70;;
36629;SDS011;36256;42.154;23.002;2023-12-04T01:42:22;75.03;;;39.47;;
36629;SDS011;36256;42.154;23.002;2023-12-04T01:44:48;38.78;;;23.33;;
36629;SDS011;36256;42.154;23.002;2023-12-04T01:47:15;39.13;;;21.48;;
36629;SDS011;36256;42.154;23.002;2023-12-04T01:49:43;41.13;;;26.65;;
36629;SDS011;36256;42.154;23.002;2023-12-04T01:52:10;39.03;;;22.42;;
36629;SDS011;36256;42.154;23.002;2023-12-04T01:54:37;21.77;;;15.10;;
36629;SDS011;36256;42.154;23.002;2023-12-04T01:57:04;12.45;;;8.43;;
36629;SDS011;36256;42.154;23.002;2023-12-04T01:59:33;13.88;;;7.97;;
36629;SDS011;36256;42.154;23.002;2023-12-04T02:02:00;15.50;;;9.57;;
36629;SDS011;36256;42.154;23.002;2023-12-04T02:04:27;10.50;;;7.60;;
36629;SDS011;36256;42.154;23.002;2023-12-04T02:09:21;10.65;;;7.15;;
36629;SDS011;36256;42.154;23.002;2023-12-04T02:11:48;10.18;;;6.75;;
36629;SDS011;36256;42.154;23.002;2023-12-04T02:14:14;12.10;;;7.43;;
36629;SDS011;36256;42.154;23.002;2023-12-04T02:16:41;8.18;;;5.65;;
36629;SDS011;36256;42.154;23.002;2023-12-04T02:19:12;12.52;;;7.47;;
36629;SDS011;36256;42.154;23.002;2023-12-04T02:21:39;12.20;;;7.50;;
36629;SDS011;36256;42.154;23.002;2023-12-04T02:24:06;10.95;;;7.10;;
36629;SDS011;36256;42.154;23.002;2023-12-04T02:26:34;10.20;;;7.25;;
36629;SDS011;36256;42.154;23.002;2023-12-04T02:29:07;12.80;;;7.55;;
36629;SDS011;36256;42.154;23.002;2023-12-04T02:31:36;11.85;;;7.57;;
36629;SDS011;36256;42.154;23.002;2023-12-04T02:34:05;9.80;;;7.03;;
36629;SDS011;36256;42.154;23.002;2023-12-04T02:36:34;11.32;;;7.10;;
36629;SDS011;36256;42.154;23.002;2023-12-04T02:39:02;10.10;;;6.63;;
36629;SDS011;36256;42.154;23.002;2023-12-04T02:41:30;11.55;;;7.20;;
36629;SDS011;36256;42.154;23.002;2023-12-04T02:43:57;12.10;;;7.10;;
36629;SDS011;36256;42.154;23.002;2023-12-04T02:46:24;9.70;;;7.05;;
36629;SDS011;36256;42.154;23.002;2023-12-04T02:48:50;9.55;;;7.05;;
36629;SDS011;36256;42.154;23.002;2023-12-04T02:51:17;10.80;;;7.38;;
36629;SDS011;36256;42.154;23.002;2023-12-04T02:53:44;11.25;;;7.30;;
36629;SDS011;36256;42.154;23.002;2023-12-04T02:56:10;9.35;;;6.88;;
36629;SDS011;36256;42.154;23.002;2023-12-04T02:58:37;11.93;;;6.90;;
36629;SDS011;36256;42.154;23.002;2023-12-04T03:01:05;10.38;;;7.25;;
36629;SDS011;36256;42.154;23.002;2023-12-04T03:03:32;12.30;;;7.60;;
36629;SDS011;36256;42.154;23.002;2023-12-04T03:05:59;11.43;;;7.60;;
36629;SDS011;36256;42.154;23.002;2023-12-04T03:08:25;9.95;;;6.47;;
36629;SDS011;36256;42.154;23.002;2023-12-04T03:10:52;9.50;;;6.68;;
36629;SDS011;36256;42.154;23.002;2023-12-04T03:13:19;10.05;;;6.68;;
36629;SDS011;36256;42.154;23.002;2023-12-04T03:15:45;11.20;;;7.07;;
36629;SDS011;36256;42.154;23.002;2023-12-04T03:18:12;10.98;;;7.45;;
36629;SDS011;36256;42.154;23.002;2023-12-04T03:20:39;11.48;;;6.60;;
36629;SDS011;36256;42.154;23.002;2023-12-04T03:23:06;10.98;;;7.47;;
36629;SDS011;36256;42.154;23.002;2023-12-04T03:25:33;10.25;;;6.53;;
36629;SDS011;36256;42.154;23.002;2023-12-04T03:27:59;11.63;;;7.25;;
36629;SDS011;36256;42.154;23.002;2023-12-04T03:30:26;12.23;;;7.53;;
36629;SDS011;36256;42.154;23.002;2023-12-04T03:32:53;9.45;;;6.70;;
36629;SDS011;36256;42.154;23.002;2023-12-04T03:35:20;11.40;;;7.35;;
36629;SDS011;36256;42.154;23.002;2023-12-04T03:37:46;12.65;;;7.70;;
36629;SDS011;36256;42.154;23.002;2023-12-04T03:40:16;12.52;;;8.05;;
36629;SDS011;36256;42.154;23.002;2023-12-04T03:42:43;12.57;;;7.35;;
36629;SDS011;36256;42.154;23.002;2023-12-04T03:45:10;11.35;;;7.60;;
36629;SDS011;36256;42.154;23.002;2023-12-04T03:47:36;11.40;;;7.50;;
36629;SDS011;36256;42.154;23.002;2023-12-04T03:50:03;12.15;;;7.85;;
36629;SDS011;36256;42.154;23.002;2023-12-04T03:52:31;12.95;;;8.02;;
36629;SDS011;36256;42.154;23.002;2023-12-04T03:54:57;9.02;;;6.00;;
36629;SDS011;36256;42.154;23.002;2023-12-04T03:57:24;14.40;;;8.40;;
36629;SDS011;36256;42.154;23.002;2023-12-04T03:59:50;8.88;;;6.18;;
36629;SDS011;36256;42.154;23.002;2023-12-04T04:02:17;12.27;;;7.70;;
36629;SDS011;36256;42.154;23.002;2023-12-04T04:04:44;11.05;;;7.45;;
36629;SDS011;36256;42.154;23.002;2023-12-04T04:07:11;11.32;;;7.50;;
36629;SDS011;36256;42.154;23.002;2023-12-04T04:09:38;15.05;;;9.00;;
36629;SDS011;36256;42.154;23.002;2023-12-04T04:12:04;23.08;;;11.77;;
36629;SDS011;36256;42.154;23.002;2023-12-04T04:14:31;12.45;;;6.95;;
36629;SDS011;36256;42.154;23.002;2023-12-04T04:16:58;13.23;;;7.10;;
36629;SDS011;36256;42.154;23.002;2023-12-04T04:19:24;9.77;;;6.82;;
36629;SDS011;36256;42.154;23.002;2023-12-04T04:21:51;15.52;;;8.05;;
36629;SDS011;36256;42.154;23.002;2023-12-04T04:24:18;13.38;;;8.18;;
36629;SDS011;36256;42.154;23.002;2023-12-04T04:26:45;10.55;;;5.95;;
36629;SDS011;36256;42.154;23.002;2023-12-04T04:29:11;12.48;;;7.82;;
36629;SDS011;36256;42.154;23.002;2023-12-04T04:31:38;11.57;;;6.88;;
36629;SDS011;36256;42.154;23.002;2023-12-04T04:34:04;10.38;;;6.70;;
36629;SDS011;36256;42.154;23.002;2023-12-04T04:36:31;12.10;;;7.28;;
36629;SDS011;36256;42.154;23.002;2023-12-04T04:38:58;8.40;;;5.15;;
36629;SDS011;36256;42.154;23.002;2023-12-04T04:41:24;8.25;;;5.28;;
36629;SDS011;36256;42.154;23.002;2023-12-04T04:43:51;12.40;;;7.00;;
36629;SDS011;36256;42.154;23.002;2023-12-04T04:46:18;9.07;;;5.18;;
36629;SDS011;36256;42.154;23.002;2023-12-04T04:48:44;13.40;;;7.88;;
36629;SDS011;36256;42.154;23.002;2023-12-04T04:51:11;10.15;;;6.85;;
36629;SDS011;36256;42.154;23.002;2023-12-04T04:53:38;14.52;;;8.05;;
36629;SDS011;36256;42.154;23.002;2023-12-04T04:56:04;14.95;;;8.43;;
36629;SDS011;36256;42.154;23.002;2023-12-04T04:58:31;13.77;;;8.27;;
36629;SDS011;36256;42.154;23.002;2023-12-04T05:00:58;17.98;;;9.50;;
36629;SDS011;36256;42.154;23.002;2023-12-04T05:03:25;14.52;;;8.07;;
36629;SDS011;36256;42.154;23.002;2023-12-04T05:05:51;12.27;;;8.82;;
36629;SDS011;36256;42.154;23.002;2023-12-04T05:08:18;12.32;;;7.28;;
36629;SDS011;36256;42.154;23.002;2023-12-04T05:10:45;8.43;;;5.32;;
36629;SDS011;36256;42.154;23.002;2023-12-04T05:13:11;10.50;;;6.10;;
36629;SDS011;36256;42.154;23.002;2023-12-04T05:15:38;13.85;;;8.20;;
36629;SDS011;36256;42.154;23.002;2023-12-04T05:18:05;50.05;;;22.27;;
36629;SDS011;36256;42.154;23.002;2023-12-04T05:20:31;26.23;;;13.30;;
36629;SDS011;36256;42.154;23.002;2023-12-04T05:22:58;10.55;;;7.05;;
36629;SDS011;36256;42.154;23.002;2023-12-04T05:25:25;12.65;;;7.70;;
36629;SDS011;36256;42.154;23.002;2023-12-04T05:27:59;14.50;;;8.57;;
36629;SDS011;36256;42.154;23.002;2023-12-04T05:30:26;11.68;;;7.25;;
36629;SDS011;36256;42.154;23.002;2023-12-04T05:32:52;12.82;;;7.50;;
36629;SDS011;36256;42.154;23.002;2023-12-04T05:35:21;12.10;;;7.38;;
36629;SDS011;36256;42.154;23.002;2023-12-04T05:37:50;11.50;;;7.88;;
36629;SDS011;36256;42.154;23.002;2023-12-04T05:40:16;157.30;;;54.80;;
36629;SDS011;36256;42.154;23.002;2023-12-04T05:42:43;32.00;;;14.18;;
36629;SDS011;36256;42.154;23.002;2023-12-04T05:45:10;17.33;;;9.63;;
36629;SDS011;36256;42.154;23.002;2023-12-04T05:47:37;12.02;;;7.55;;
36629;SDS011;36256;42.154;23.002;2023-12-04T05:50:03;12.02;;;7.90;;
36629;SDS011;36256;42.154;23.002;2023-12-04T05:52:30;12.45;;;7.35;;
36629;SDS011;36256;42.154;23.002;2023-12-04T05:54:57;14.65;;;7.93;;
36629;SDS011;36256;42.154;23.002;2023-12-04T05:57:24;11.25;;;7.07;;
36629;SDS011;36256;42.154;23.002;2023-12-04T05:59:50;12.80;;;7.75;;
36629;SDS011;36256;42.154;23.002;2023-12-04T06:02:17;12.85;;;7.95;;
36629;SDS011;36256;42.154;23.002;2023-12-04T06:04:44;14.23;;;9.68;;
36629;SDS011;36256;42.154;23.002;2023-12-04T06:07:10;14.70;;;9.50;;
36629;SDS011;36256;42.154;23.002;2023-12-04T06:09:37;17.40;;;10.45;;
36629;SDS011;36256;42.154;23.002;2023-12-04T06:12:04;11.55;;;6.93;;
36629;SDS011;36256;42.154;23.002;2023-12-04T06:14:34;11.63;;;7.55;;
36629;SDS011;36256;42.154;23.002;2023-12-04T06:17:01;12.13;;;7.88;;
36629;SDS011;36256;42.154;23.002;2023-12-04T06:19:28;10.80;;;6.82;;
36629;SDS011;36256;42.154;23.002;2023-12-04T06:21:56;11.55;;;6.32;;
36629;SDS011;36256;42.154;23.002;2023-12-04T06:24:22;13.05;;;7.10;;
36629;SDS011;36256;42.154;23.002;2023-12-04T06:26:50;15.43;;;8.27;;
36629;SDS011;36256;42.154;23.002;2023-12-04T06:29:17;11.85;;;7.70;;
36629;SDS011;36256;42.154;23.002;2023-12-04T06:31:45;10.18;;;5.93;;
36629;SDS011;36256;42.154;23.002;2023-12-04T06:36:40;10.10;;;5.95;;
36629;SDS011;36256;42.154;23.002;2023-12-04T06:39:11;8.30;;;5.40;;
36629;SDS011;36256;42.154;23.002;2023-12-04T06:41:39;8.93;;;5.47;;
36629;SDS011;36256;42.154;23.002;2023-12-04T06:44:06;10.95;;;6.63;;
36629;SDS011;36256;42.154;23.002;2023-12-04T06:49:04;9.48;;;5.97;;
36629;SDS011;36256;42.154;23.002;2023-12-04T06:51:35;12.00;;;5.97;;
36629;SDS011;36256;42.154;23.002;2023-12-04T06:54:01;14.20;;;6.68;;
36629;SDS011;36256;42.154;23.002;2023-12-04T06:56:28;14.98;;;6.50;;
36629;SDS011;36256;42.154;23.002;2023-12-04T06:58:55;12.30;;;6.32;;
36629;SDS011;36256;42.154;23.002;2023-12-04T07:01:22;10.02;;;6.72;;
36629;SDS011;36256;42.154;23.002;2023-12-04T07:03:49;18.85;;;7.22;;
36629;SDS011;36256;42.154;23.002;2023-12-04T07:06:15;15.68;;;4.78;;
36629;SDS011;36256;42.154;23.002;2023-12-04T07:11:09;10.48;;;6.47;;
36629;SDS011;36256;42.154;23.002;2023-12-04T07:13:36;8.45;;;5.22;;
36629;SDS011;36256;42.154;23.002;2023-12-04T07:16:03;13.07;;;7.03;;
36629;SDS011;36256;42.154;23.002;2023-12-04T07:18:30;9.43;;;6.25;;
36629;SDS011;36256;42.154;23.002;2023-12-04T07:20:56;10.10;;;6.25;;
36629;SDS011;36256;42.154;23.002;2023-12-04T07:23:23;8.07;;;5.15;;
36629;SDS011;36256;42.154;23.002;2023-12-04T07:25:53;9.77;;;6.55;;
36629;SDS011;36256;42.154;23.002;2023-12-04T07:28:20;10.85;;;7.10;;
36629;SDS011;36256;42.154;23.002;2023-12-04T07:30:46;11.25;;;6.82;;
36629;SDS011;36256;42.154;23.002;2023-12-04T07:33:13;12.50;;;8.18;;
36629;SDS011;36256;42.154;23.002;2023-12-04T07:35:40;12.43;;;8.45;;
36629;SDS011;36256;42.154;23.002;2023-12-04T07:38:07;13.93;;;8.10;;
36629;SDS011;36256;42.154;23.002;2023-12-04T07:40:33;11.50;;;7.75;;
36629;SDS011;36256;42.154;23.002;2023-12-04T07:43:00;10.88;;;6.97;;
36629;SDS011;36256;42.154;23.002;2023-12-04T07:45:27;11.90;;;7.40;;
36629;SDS011;36256;42.154;23.002;2023-12-04T07:47:54;11.35;;;7.65;;
36629;SDS011;36256;42.154;23.002;2023-12-04T07:50:20;12.18;;;7.75;;
36629;SDS011;36256;42.154;23.002;2023-12-04T07:52:47;11.13;;;7.00;;
36629;SDS011;36256;42.154;23.002;2023-12-04T07:55:14;13.88;;;7.90;;
36629;SDS011;36256;42.154;23.002;2023-12-04T07:57:41;9.45;;;6.50;;
36629;SDS011;36256;42.154;23.002;2023-12-04T08:00:08;10.75;;;7.13;;
36629;SDS011;36256;42.154;23.002;2023-12-04T08:02:34;9.82;;;6.50;;
36629;SDS011;36256;42.154;23.002;2023-12-04T08:05:01;11.52;;;7.13;;
36629;SDS011;36256;42.154;23.002;2023-12-04T08:07:28;11.40;;;7.07;;
36629;SDS011;36256;42.154;23.002;2023-12-04T08:09:54;11.32;;;7.57;;
36629;SDS011;36256;42.154;23.002;2023-12-04T08:12:24;12.80;;;8.02;;
36629;SDS011;36256;42.154;23.002;2023-12-04T08:14:51;13.13;;;8.27;;
36629;SDS011;36256;42.154;23.002;2023-12-04T08:17:17;12.15;;;7.85;;
36629;SDS011;36256;42.154;23.002;2023-12-04T08:19:44;10.60;;;6.95;;
36629;SDS011;36256;42.154;23.002;2023-12-04T08:22:12;13.07;;;7.35;;
36629;SDS011;36256;42.154;23.002;2023-12-04T08:24:39;17.83;;;12.07;;
36629;SDS011;36256;42.154;23.002;2023-12-04T08:27:06;10.40;;;7.50;;
36629;SDS011;36256;42.154;23.002;2023-12-04T08:29:33;11.75;;;8.40;;
36629;SDS011;36256;42.154;23.002;2023-12-04T08:31:59;11.70;;;8.18;;
36629;SDS011;36256;42.154;23.002;2023-12-04T08:34:26;10.30;;;6.97;;
36629;SDS011;36256;42.154;23.002;2023-12-04T08:36:53;12.77;;;7.70;;
36629;SDS011;36256;42.154;23.002;2023-12-04T08:39:19;9.90;;;6.28;;
36629;SDS011;36256;42.154;23.002;2023-12-04T08:41:46;12.95;;;8.20;;
36629;SDS011;36256;42.154;23.002;2023-12-04T08:44:26;11.10;;;7.75;;
36629;SDS011;36256;42.154;23.002;2023-12-04T08:46:54;10.82;;;7.43;;
36629;SDS011;36256;42.154;23.002;2023-12-04T08:49:21;10.73;;;6.68;;
36629;SDS011;36256;42.154;23.002;2023-12-04T08:51:53;8.15;;;4.88;;
36629;SDS011;36256;42.154;23.002;2023-12-04T08:54:20;9.98;;;5.47;;
36629;SDS011;36256;42.154;23.002;2023-12-04T08:56:47;6.53;;;4.88;;
36629;SDS011;36256;42.154;23.002;2023-12-04T08:59:14;9.15;;;5.47;;
36629;SDS011;36256;42.154;23.002;2023-12-04T09:01:40;8.23;;;5.30;;
36629;SDS011;36256;42.154;23.002;2023-12-04T09:04:08;7.15;;;4.95;;
36629;SDS011;36256;42.154;23.002;2023-12-04T09:06:35;5.35;;;4.55;;
36629;SDS011;36256;42.154;23.002;2023-12-04T09:09:05;5.93;;;4.28;;
36629;SDS011;36256;42.154;23.002;2023-12-04T09:11:40;8.65;;;5.45;;
36629;SDS011;36256;42.154;23.002;2023-12-04T09:14:10;7.88;;;4.70;;
36629;SDS011;36256;42.154;23.002;2023-12-04T09:16:37;6.47;;;4.97;;
36629;SDS011;36256;42.154;23.002;2023-12-04T09:19:04;9.07;;;5.55;;
36629;SDS011;36256;42.154;23.002;2023-12-04T09:21:31;8.45;;;5.72;;
36629;SDS011;36256;42.154;23.002;2023-12-04T09:23:58;6.05;;;4.90;;
36629;SDS011;36256;42.154;23.002;2023-12-04T09:26:24;8.88;;;5.50;;
36629;SDS011;36256;42.154;23.002;2023-12-04T09:28:51;8.57;;;5.45;;
36629;SDS011;36256;42.154;23.002;2023-12-04T09:31:20;6.80;;;5.00;;
36629;SDS011;36256;42.154;23.002;2023-12-04T09:33:47;6.90;;;5.57;;
36629;SDS011;36256;42.154;23.002;2023-12-04T09:36:14;8.70;;;5.53;;
36629;SDS011;36256;42.154;23.002;2023-12-04T09:38:40;7.82;;;5.25;;
36629;SDS011;36256;42.154;23.002;2023-12-04T09:41:08;7.05;;;4.90;;
36629;SDS011;36256;42.154;23.002;2023-12-04T09:43:38;5.95;;;4.45;;
36629;SDS011;36256;42.154;23.002;2023-12-04T09:48:32;8.23;;;5.22;;
36629;SDS011;36256;42.154;23.002;2023-12-04T09:51:01;8.13;;;5.00;;
36629;SDS011;36256;42.154;23.002;2023-12-04T09:53:28;7.53;;;4.63;;
36629;SDS011;36256;42.154;23.002;2023-12-04T09:55:59;8.07;;;5.20;;
36629;SDS011;36256;42.154;23.002;2023-12-04T09:58:27;7.00;;;4.57;;
36629;SDS011;36256;42.154;23.002;2023-12-04T10:00:57;7.30;;;4.75;;
36629;SDS011;36256;42.154;23.002;2023-12-04T10:03:25;6.22;;;4.57;;
36629;SDS011;36256;42.154;23.002;2023-12-04T10:05:53;7.05;;;4.25;;
36629;SDS011;36256;42.154;23.002;2023-12-04T10:08:20;7.40;;;4.28;;
36629;SDS011;36256;42.154;23.002;2023-12-04T10:10:48;8.90;;;4.80;;
36629;SDS011;36256;42.154;23.002;2023-12-04T10:13:15;6.70;;;3.67;;
36629;SDS011;36256;42.154;23.002;2023-12-04T10:16:01;5.82;;;3.97;;
36629;SDS011;36256;42.154;23.002;2023-12-04T10:18:32;6.03;;;4.25;;
36629;SDS011;36256;42.154;23.002;2023-12-04T10:20:59;5.85;;;3.28;;
36629;SDS011;36256;42.154;23.002;2023-12-04T10:23:39;6.70;;;4.28;;
36629;SDS011;36256;42.154;23.002;2023-12-04T10:26:09;9.15;;;3.70;;
36629;SDS011;36256;42.154;23.002;2023-12-04T10:28:57;5.20;;;3.58;;
36629;SDS011;36256;42.154;23.002;2023-12-04T10:31:34;5.18;;;3.22;;
36629;SDS011;36256;42.154;23.002;2023-12-04T10:34:02;5.93;;;3.60;;
36629;SDS011;36256;42.154;23.002;2023-12-04T10:36:31;5.50;;;3.60;;
36629;SDS011;36256;42.154;23.002;2023-12-04T10:39:01;6.53;;;3.38;;
36629;SDS011;36256;42.154;23.002;2023-12-04T10:41:31;4.45;;;3.08;;
36629;SDS011;36256;42.154;23.002;2023-12-04T10:43:58;5.18;;;3.33;;
36629;SDS011;36256;42.154;23.002;2023-12-04T10:46:36;4.43;;;2.97;;
36629;SDS011;36256;42.154;23.002;2023-12-04T10:49:04;7.13;;;3.60;;
36629;SDS011;36256;42.154;23.002;2023-12-04T10:51:32;8.15;;;4.57;;
36629;SDS011;36256;42.154;23.002;2023-12-04T10:54:01;7.13;;;4.25;;
36629;SDS011;36256;42.154;23.002;2023-12-04T10:56:33;7.68;;;4.45;;
36629;SDS011;36256;42.154;23.002;2023-12-04T10:59:06;8.20;;;4.40;;
36629;SDS011;36256;42.154;23.002;2023-12-04T11:01:38;5.75;;;4.13;;
36629;SDS011;36256;42.154;23.002;2023-12-04T11:04:14;6.72;;;3.63;;
36629;SDS011;36256;42.154;23.002;2023-12-04T11:06:49;4.78;;;2.90;;
36629;SDS011;36256;42.154;23.002;2023-12-04T11:09:20;4.93;;;2.45;;
36629;SDS011;36256;42.154;23.002;2023-12-04T11:11:49;6.57;;;3.38;;
36629;SDS011;36256;42.154;23.002;2023-12-04T11:14:21;7.68;;;3.30;;
36629;SDS011;36256;42.154;23.002;2023-12-04T11:16:51;7.97;;;3.25;;
36629;SDS011;36256;42.154;23.002;2023-12-04T11:19:26;10.48;;;4.35;;
36629;SDS011;36256;42.154;23.002;2023-12-04T11:21:58;8.23;;;3.38;;
36629;SDS011;36256;42.154;23.002;2023-12-04T11:24:25;11.02;;;3.80;;
36629;SDS011;36256;42.154;23.002;2023-12-04T11:26:52;7.15;;;3.03;;
36629;SDS011;36256;42.154;23.002;2023-12-04T11:29:21;5.07;;;3.30;;
36629;SDS011;36256;42.154;23.002;2023-12-04T11:31:48;6.15;;;3.65;;
36629;SDS011;36256;42.154;23.002;2023-12-04T11:34:15;9.63;;;4.50;;
36629;SDS011;36256;42.154;23.002;2023-12-04T11:36:42;21.77;;;4.93;;
36629;SDS011;36256;42.154;23.002;2023-12-04T11:39:10;25.52;;;5.60;;
36629;SDS011;36256;42.154;23.002;2023-12-04T11:41:38;22.10;;;5.30;;
36629;SDS011;36256;42.154;23.002;2023-12-04T11:44:11;17.30;;;5.53;;
36629;SDS011;36256;42.154;23.002;2023-12-04T11:46:54;19.77;;;5.15;;
36629;SDS011;36256;42.154;23.002;2023-12-04T11:49:26;24.35;;;5.25;;
36629;SDS011;36256;42.154;23.002;2023-12-04T11:51:57;19.67;;;5.97;;
36629;SDS011;36256;42.154;23.002;2023-12-04T11:54:26;12.35;;;3.88;;
36629;SDS011;36256;42.154;23.002;2023-12-04T11:56:58;12.60;;;4.15;;
36629;SDS011;36256;42.154;23.002;2023-12-04T11:59:27;6.05;;;4.18;;
36629;SDS011;36256;42.154;23.002;2023-12-04T12:01:54;15.13;;;4.28;;
36629;SDS011;36256;42.154;23.002;2023-12-04T12:04:25;14.73;;;4.53;;
36629;SDS011;36256;42.154;23.002;2023-12-04T12:06:57;10.82;;;3.92;;
36629;SDS011;36256;42.154;23.002;2023-12-04T12:09:24;8.10;;;3.90;;
36629;SDS011;36256;42.154;23.002;2023-12-04T12:11:52;9.05;;;3.50;;
36629;SDS011;36256;42.154;23.002;2023-12-04T12:14:22;7.13;;;4.13;;
36629;SDS011;36256;42.154;23.002;2023-12-04T12:16:49;18.98;;;4.45;;
36629;SDS011;36256;42.154;23.002;2023-12-04T12:19:15;7.17;;;4.10;;
36629;SDS011;36256;42.154;23.002;2023-12-04T12:21:45;10.05;;;4.57;;
36629;SDS011;36256;42.154;23.002;2023-12-04T12:24:13;11.50;;;6.00;;
36629;SDS011;36256;42.154;23.002;2023-12-04T12:26:40;9.88;;;4.65;;
36629;SDS011;36256;42.154;23.002;2023-12-04T12:29:08;9.02;;;4.40;;
36629;SDS011;36256;42.154;23.002;2023-12-04T12:31:35;6.90;;;3.47;;
36629;SDS011;36256;42.154;23.002;2023-12-04T12:34:02;5.07;;;3.78;;
36629;SDS011;36256;42.154;23.002;2023-12-04T12:36:29;5.60;;;3.15;;
36629;SDS011;36256;42.154;23.002;2023-12-04T12:38:59;5.68;;;3.35;;
36629;SDS011;36256;42.154;23.002;2023-12-04T12:41:30;4.63;;;3.40;;
36629;SDS011;36256;42.154;23.002;2023-12-04T12:43:57;7.28;;;3.75;;
36629;SDS011;36256;42.154;23.002;2023-12-04T12:46:24;6.38;;;3.50;;
36629;SDS011;36256;42.154;23.002;2023-12-04T12:48:52;10.75;;;3.28;;
36629;SDS011;36256;42.154;23.002;2023-12-04T12:51:19;5.78;;;3.35;;
36629;SDS011;36256;42.154;23.002;2023-12-04T12:53:47;4.82;;;3.00;;
36629;SDS011;36256;42.154;23.002;2023-12-04T12:56:18;5.05;;;3.10;;
36629;SDS011;36256;42.154;23.002;2023-12-04T12:58:45;4.45;;;2.85;;
36629;SDS011;36256;42.154;23.002;2023-12-04T13:01:11;4.63;;;2.75;;
36629;SDS011;36256;42.154;23.002;2023-12-04T13:06:05;7.32;;;3.33;;
36629;SDS011;36256;42.154;23.002;2023-12-04T13:08:33;5.93;;;3.15;;
36629;SDS011;36256;42.154;23.002;2023-12-04T13:11:00;8.20;;;3.90;;
36629;SDS011;36256;42.154;23.002;2023-12-04T13:13:26;9.30;;;4.20;;
36629;SDS011;36256;42.154;23.002;2023-12-04T13:15:54;7.38;;;4.00;;
36629;SDS011;36256;42.154;23.002;2023-12-04T13:18:21;7.18;;;4.13;;
36629;SDS011;36256;42.154;23.002;2023-12-04T13:20:48;7.38;;;4.68;;
36629;SDS011;36256;42.154;23.002;2023-12-04T13:23:14;12.60;;;6.47;;
36629;SDS011;36256;42.154;23.002;2023-12-04T13:25:41;15.82;;;4.68;;
36629;SDS011;36256;42.154;23.002;2023-12-04T13:28:10;18.48;;;5.97;;
36629;SDS011;36256;42.154;23.002;2023-12-04T13:30:52;9.02;;;3.95;;
36629;SDS011;36256;42.154;23.002;2023-12-04T13:33:20;10.30;;;4.38;;
36629;SDS011;36256;42.154;23.002;2023-12-04T13:35:46;11.13;;;5.20;;
36629;SDS011;36256;42.154;23.002;2023-12-04T13:38:13;13.35;;;6.05;;
36629;SDS011;36256;42.154;23.002;2023-12-04T13:40:48;26.30;;;8.93;;
36629;SDS011;36256;42.154;23.002;2023-12-04T13:43:26;22.40;;;10.10;;
36629;SDS011;36256;42.154;23.002;2023-12-04T13:46:12;22.08;;;8.82;;
36629;SDS011;36256;42.154;23.002;2023-12-04T13:48:40;27.73;;;12.63;;
36629;SDS011;36256;42.154;23.002;2023-12-04T13:51:09;36.85;;;14.15;;
36629;SDS011;36256;42.154;23.002;2023-12-04T13:53:36;31.92;;;12.63;;
36629;SDS011;36256;42.154;23.002;2023-12-04T13:56:11;29.08;;;12.85;;
36629;SDS011;36256;42.154;23.002;2023-12-04T13:58:47;47.25;;;17.92;;
36629;SDS011;36256;42.154;23.002;2023-12-04T14:01:21;45.40;;;18.27;;
36629;SDS011;36256;42.154;23.002;2023-12-04T14:03:55;48.45;;;21.75;;
36629;SDS011;36256;42.154;23.002;2023-12-04T14:06:28;32.55;;;18.15;;
36629;SDS011;36256;42.154;23.002;2023-12-04T14:08:56;34.63;;;19.70;;
36629;SDS011;36256;42.154;23.002;2023-12-04T14:11:24;29.48;;;14.48;;
36629;SDS011;36256;42.154;23.002;2023-12-04T14:13:50;15.65;;;8.32;;
36629;SDS011;36256;42.154;23.002;2023-12-04T14:16:17;20.80;;;10.55;;
36629;SDS011;36256;42.154;23.002;2023-12-04T14:18:44;19.88;;;10.93;;
36629;SDS011;36256;42.154;23.002;2023-12-04T14:21:12;22.25;;;10.60;;
36629;SDS011;36256;42.154;23.002;2023-12-04T14:23:38;20.27;;;9.88;;
36629;SDS011;36256;42.154;23.002;2023-12-04T14:26:05;14.52;;;6.68;;
36629;SDS011;36256;42.154;23.002;2023-12-04T14:28:32;13.20;;;6.25;;
36629;SDS011;36256;42.154;23.002;2023-12-04T14:31:08;9.95;;;5.78;;
36629;SDS011;36256;42.154;23.002;2023-12-04T14:33:36;12.57;;;5.28;;
36629;SDS011;36256;42.154;23.002;2023-12-04T14:36:08;11.18;;;5.47;;
36629;SDS011;36256;42.154;23.002;2023-12-04T14:38:35;11.30;;;6.32;;
36629;SDS011;36256;42.154;23.002;2023-12-04T14:41:02;33.28;;;16.33;;
36629;SDS011;36256;42.154;23.002;2023-12-04T14:43:29;39.33;;;17.35;;